sensor_id;sensor_type;location;lat;lon;timestamp;temperature;humidity
46926;DHT22;32667;48.248;-1.700;2022-09-21T00:00:49;15.20;63.20
46926;DHT22;32667;48.248;-1.700;2022-09-21T00:03:15;15.20;63.30
46926;DHT22;32667;48.248;-1.700;2022-09-21T00:05:41;15.20;63.30
46926;DHT22;32667;48.248;-1.700;2022-09-21T00:08:07;15.10;63.20
46926;DHT22;32667;48.248;-1.700;2022-09-21T00:10:35;15.20;63.30
46926;DHT22;32667;48.248;-1.700;2022-09-21T00:13:02;15.20;63.30
46926;DHT22;32667;48.248;-1.700;2022-09-21T00:15:31;15.10;63.20
46926;DHT22;32667;48.248;-1.700;2022-09-21T00:18:01;15.10;63.30
46926;DHT22;32667;48.248;-1.700;2022-09-21T00:20:28;15.10;63.30
46926;DHT22;32667;48.248;-1.700;2022-09-21T00:22:54;15.10;63.30
46926;DHT22;32667;48.248;-1.700;2022-09-21T00:25:20;15.10;63.30
46926;DHT22;32667;48.248;-1.700;2022-09-21T00:27:46;15.10;63.30
46926;DHT22;32667;48.248;-1.700;2022-09-21T00:30:16;15.10;63.30
46926;DHT22;32667;48.248;-1.700;2022-09-21T00:32:42;15.00;63.20
46926;DHT22;32667;48.248;-1.700;2022-09-21T00:35:10;15.00;63.30
46926;DHT22;32667;48.248;-1.700;2022-09-21T00:37:36;15.00;63.30
46926;DHT22;32667;48.248;-1.700;2022-09-21T00:40:02;15.00;63.30
46926;DHT22;32667;48.248;-1.700;2022-09-21T00:42:33;15.00;63.40
46926;DHT22;32667;48.248;-1.700;2022-09-21T00:44:59;15.00;63.40
46926;DHT22;32667;48.248;-1.700;2022-09-21T00:47:27;15.00;63.40
46926;DHT22;32667;48.248;-1.700;2022-09-21T00:49:56;15.00;63.40
46926;DHT22;32667;48.248;-1.700;2022-09-21T00:52:24;15.00;63.40
46926;DHT22;32667;48.248;-1.700;2022-09-21T00:54:55;14.90;63.40
46926;DHT22;32667;48.248;-1.700;2022-09-21T00:57:25;14.90;63.40
46926;DHT22;32667;48.248;-1.700;2022-09-21T00:59:55;14.90;63.40
46926;DHT22;32667;48.248;-1.700;2022-09-21T01:02:22;14.90;63.40
46926;DHT22;32667;48.248;-1.700;2022-09-21T01:04:48;14.90;63.40
46926;DHT22;32667;48.248;-1.700;2022-09-21T01:07:24;14.90;63.40
46926;DHT22;32667;48.248;-1.700;2022-09-21T01:09:54;14.80;63.40
46926;DHT22;32667;48.248;-1.700;2022-09-21T01:15:34;14.80;63.50
46926;DHT22;32667;48.248;-1.700;2022-09-21T01:24:13;14.70;63.40
46926;DHT22;32667;48.248;-1.700;2022-09-21T01:26:49;14.70;63.40
46926;DHT22;32667;48.248;-1.700;2022-09-21T01:29:36;14.70;63.50
46926;DHT22;32667;48.248;-1.700;2022-09-21T01:34:58;14.60;63.50
46926;DHT22;32667;48.248;-1.700;2022-09-21T01:40:01;14.60;63.50
46926;DHT22;32667;48.248;-1.700;2022-09-21T01:42:28;14.60;63.50
46926;DHT22;32667;48.248;-1.700;2022-09-21T01:44:57;14.60;63.50
46926;DHT22;32667;48.248;-1.700;2022-09-21T01:47:26;14.50;63.50
46926;DHT22;32667;48.248;-1.700;2022-09-21T01:49:54;14.50;63.50
46926;DHT22;32667;48.248;-1.700;2022-09-21T01:52:28;14.50;63.50
46926;DHT22;32667;48.248;-1.700;2022-09-21T01:55:07;14.40;63.50
46926;DHT22;32667;48.248;-1.700;2022-09-21T02:00:21;14.40;63.50
46926;DHT22;32667;48.248;-1.700;2022-09-21T02:02:50;14.40;63.50
46926;DHT22;32667;48.248;-1.700;2022-09-21T02:05:19;14.30;63.40
46926;DHT22;32667;48.248;-1.700;2022-09-21T02:07:46;14.30;63.30
46926;DHT22;32667;48.248;-1.700;2022-09-21T02:10:19;14.30;63.30
46926;DHT22;32667;48.248;-1.700;2022-09-21T02:12:48;14.30;63.40
46926;DHT22;32667;48.248;-1.700;2022-09-21T02:15:19;14.20;63.40
46926;DHT22;32667;48.248;-1.700;2022-09-21T02:18:06;14.20;63.40
46926;DHT22;32667;48.248;-1.700;2022-09-21T02:20:37;14.20;63.40
46926;DHT22;32667;48.248;-1.700;2022-09-21T02:23:22;14.20;63.40
46926;DHT22;32667;48.248;-1.700;2022-09-21T02:25:56;14.20;63.40
46926;DHT22;32667;48.248;-1.700;2022-09-21T02:31:25;14.20;63.40
46926;DHT22;32667;48.248;-1.700;2022-09-21T02:34:08;14.20;63.40
46926;DHT22;32667;48.248;-1.700;2022-09-21T02:39:16;14.20;63.40
46926;DHT22;32667;48.248;-1.700;2022-09-21T02:42:00;14.10;63.40
46926;DHT22;32667;48.248;-1.700;2022-09-21T02:45:04;14.10;63.40
46926;DHT22;32667;48.248;-1.700;2022-09-21T02:48:01;14.10;63.40
46926;DHT22;32667;48.248;-1.700;2022-09-21T02:50:52;14.10;63.40
46926;DHT22;32667;48.248;-1.700;2022-09-21T02:53:22;14.10;63.40
46926;DHT22;32667;48.248;-1.700;2022-09-21T02:55:51;14.00;63.40
46926;DHT22;32667;48.248;-1.700;2022-09-21T02:58:19;14.00;63.40
46926;DHT22;32667;48.248;-1.700;2022-09-21T03:00:46;14.00;63.40
46926;DHT22;32667;48.248;-1.700;2022-09-21T03:03:22;14.00;63.50
46926;DHT22;32667;48.248;-1.700;2022-09-21T03:05:52;14.00;63.50
46926;DHT22;32667;48.248;-1.700;2022-09-21T03:08:19;14.00;63.50
46926;DHT22;32667;48.248;-1.700;2022-09-21T03:10:45;14.00;63.50
46926;DHT22;32667;48.248;-1.700;2022-09-21T03:13:14;14.00;63.40
46926;DHT22;32667;48.248;-1.700;2022-09-21T03:15:40;14.00;63.40
46926;DHT22;32667;48.248;-1.700;2022-09-21T03:18:07;14.00;63.40
46926;DHT22;32667;48.248;-1.700;2022-09-21T03:20:40;14.00;63.40
46926;DHT22;32667;48.248;-1.700;2022-09-21T03:23:06;14.00;63.40
46926;DHT22;32667;48.248;-1.700;2022-09-21T03:25:32;14.00;63.40
46926;DHT22;32667;48.248;-1.700;2022-09-21T03:27:58;14.00;63.40
46926;DHT22;32667;48.248;-1.700;2022-09-21T03:30:26;14.00;63.40
46926;DHT22;32667;48.248;-1.700;2022-09-21T03:32:54;14.00;63.40
46926;DHT22;32667;48.248;-1.700;2022-09-21T03:35:21;14.00;63.40
46926;DHT22;32667;48.248;-1.700;2022-09-21T03:37:48;14.00;63.40
46926;DHT22;32667;48.248;-1.700;2022-09-21T03:40:15;14.00;63.40
46926;DHT22;32667;48.248;-1.700;2022-09-21T03:42:42;14.00;63.50
46926;DHT22;32667;48.248;-1.700;2022-09-21T03:45:09;13.90;63.40
46926;DHT22;32667;48.248;-1.700;2022-09-21T03:47:36;13.90;63.40
46926;DHT22;32667;48.248;-1.700;2022-09-21T03:50:03;13.90;63.40
46926;DHT22;32667;48.248;-1.700;2022-09-21T03:52:29;13.90;63.40
46926;DHT22;32667;48.248;-1.700;2022-09-21T03:54:55;13.90;63.40
46926;DHT22;32667;48.248;-1.700;2022-09-21T03:57:21;13.90;64.10
46926;DHT22;32667;48.248;-1.700;2022-09-21T03:59:47;13.90;63.50
46926;DHT22;32667;48.248;-1.700;2022-09-21T04:02:14;13.90;63.40
46926;DHT22;32667;48.248;-1.700;2022-09-21T04:04:40;13.90;63.50
46926;DHT22;32667;48.248;-1.700;2022-09-21T04:07:06;13.90;63.50
46926;DHT22;32667;48.248;-1.700;2022-09-21T04:09:32;13.90;63.50
46926;DHT22;32667;48.248;-1.700;2022-09-21T04:11:57;13.90;63.50
46926;DHT22;32667;48.248;-1.700;2022-09-21T04:14:23;13.90;63.50
46926;DHT22;32667;48.248;-1.700;2022-09-21T04:16:49;13.90;63.40
46926;DHT22;32667;48.248;-1.700;2022-09-21T04:19:18;13.90;63.40
46926;DHT22;32667;48.248;-1.700;2022-09-21T04:21:43;13.90;63.50
46926;DHT22;32667;48.248;-1.700;2022-09-21T04:24:09;13.90;63.40
46926;DHT22;32667;48.248;-1.700;2022-09-21T04:26:35;13.90;63.40
46926;DHT22;32667;48.248;-1.700;2022-09-21T04:29:01;13.90;63.40
46926;DHT22;32667;48.248;-1.700;2022-09-21T04:31:28;13.80;63.40
46926;DHT22;32667;48.248;-1.700;2022-09-21T04:33:56;13.80;63.30
46926;DHT22;32667;48.248;-1.700;2022-09-21T04:36:23;13.80;63.40
46926;DHT22;32667;48.248;-1.700;2022-09-21T04:38:50;13.80;63.40
46926;DHT22;32667;48.248;-1.700;2022-09-21T04:41:16;13.80;63.40
46926;DHT22;32667;48.248;-1.700;2022-09-21T04:43:43;13.80;63.30
46926;DHT22;32667;48.248;-1.700;2022-09-21T04:46:11;13.80;63.30
46926;DHT22;32667;48.248;-1.700;2022-09-21T04:48:38;13.80;63.30
46926;DHT22;32667;48.248;-1.700;2022-09-21T04:51:04;13.80;63.30
46926;DHT22;32667;48.248;-1.700;2022-09-21T04:53:37;13.80;63.30
46926;DHT22;32667;48.248;-1.700;2022-09-21T04:56:05;13.80;63.30
46926;DHT22;32667;48.248;-1.700;2022-09-21T04:58:32;13.80;63.30
46926;DHT22;32667;48.248;-1.700;2022-09-21T05:00:58;13.80;63.30
46926;DHT22;32667;48.248;-1.700;2022-09-21T05:03:24;13.80;63.40
46926;DHT22;32667;48.248;-1.700;2022-09-21T05:05:54;13.70;63.40
46926;DHT22;32667;48.248;-1.700;2022-09-21T05:08:22;13.70;63.50
46926;DHT22;32667;48.248;-1.700;2022-09-21T05:11:08;13.70;63.60
46926;DHT22;32667;48.248;-1.700;2022-09-21T05:13:35;13.70;63.60
46926;DHT22;32667;48.248;-1.700;2022-09-21T05:16:01;13.60;63.60
46926;DHT22;32667;48.248;-1.700;2022-09-21T05:18:26;13.60;63.60
46926;DHT22;32667;48.248;-1.700;2022-09-21T05:20:57;13.60;63.70
46926;DHT22;32667;48.248;-1.700;2022-09-21T05:23:24;13.60;63.60
46926;DHT22;32667;48.248;-1.700;2022-09-21T05:25:50;13.60;63.60
46926;DHT22;32667;48.248;-1.700;2022-09-21T05:28:17;13.60;63.60
46926;DHT22;32667;48.248;-1.700;2022-09-21T05:30:45;13.60;63.60
46926;DHT22;32667;48.248;-1.700;2022-09-21T05:33:15;13.60;63.60
46926;DHT22;32667;48.248;-1.700;2022-09-21T05:38:23;13.50;63.60
46926;DHT22;32667;48.248;-1.700;2022-09-21T05:40:50;13.50;63.60
46926;DHT22;32667;48.248;-1.700;2022-09-21T05:43:16;13.50;63.60
46926;DHT22;32667;48.248;-1.700;2022-09-21T05:45:45;13.50;63.60
46926;DHT22;32667;48.248;-1.700;2022-09-21T05:48:24;13.50;63.60
46926;DHT22;32667;48.248;-1.700;2022-09-21T05:51:24;13.50;63.60
46926;DHT22;32667;48.248;-1.700;2022-09-21T06:00:20;13.50;63.50
46926;DHT22;32667;48.248;-1.700;2022-09-21T06:05:35;13.50;63.50
46926;DHT22;32667;48.248;-1.700;2022-09-21T06:08:00;13.50;63.40
46926;DHT22;32667;48.248;-1.700;2022-09-21T06:10:29;13.50;63.40
46926;DHT22;32667;48.248;-1.700;2022-09-21T06:12:59;13.60;63.50
46926;DHT22;32667;48.248;-1.700;2022-09-21T06:15:25;13.50;63.40
46926;DHT22;32667;48.248;-1.700;2022-09-21T06:17:53;13.50;63.50
46926;DHT22;32667;48.248;-1.700;2022-09-21T06:20:19;13.50;63.50
46926;DHT22;32667;48.248;-1.700;2022-09-21T06:22:45;13.50;63.60
46926;DHT22;32667;48.248;-1.700;2022-09-21T06:25:10;13.50;63.60
46926;DHT22;32667;48.248;-1.700;2022-09-21T06:27:36;13.50;63.60
46926;DHT22;32667;48.248;-1.700;2022-09-21T06:30:02;13.40;63.60
46926;DHT22;32667;48.248;-1.700;2022-09-21T06:32:28;13.50;63.60
46926;DHT22;32667;48.248;-1.700;2022-09-21T06:34:53;13.50;63.60
46926;DHT22;32667;48.248;-1.700;2022-09-21T06:37:19;13.50;63.60
46926;DHT22;32667;48.248;-1.700;2022-09-21T06:39:45;13.50;63.50
46926;DHT22;32667;48.248;-1.700;2022-09-21T06:42:11;13.50;63.50
46926;DHT22;32667;48.248;-1.700;2022-09-21T06:44:36;13.50;63.40
46926;DHT22;32667;48.248;-1.700;2022-09-21T06:47:02;13.50;63.40
46926;DHT22;32667;48.248;-1.700;2022-09-21T06:49:28;13.50;63.40
46926;DHT22;32667;48.248;-1.700;2022-09-21T06:51:54;13.60;63.40
46926;DHT22;32667;48.248;-1.700;2022-09-21T06:54:20;13.60;63.40
46926;DHT22;32667;48.248;-1.700;2022-09-21T06:56:46;13.50;63.40
46926;DHT22;32667;48.248;-1.700;2022-09-21T06:59:12;13.60;63.40
46926;DHT22;32667;48.248;-1.700;2022-09-21T07:01:38;13.60;63.50
46926;DHT22;32667;48.248;-1.700;2022-09-21T07:04:04;13.60;63.40
46926;DHT22;32667;48.248;-1.700;2022-09-21T07:06:31;13.60;63.40
46926;DHT22;32667;48.248;-1.700;2022-09-21T07:08:57;13.60;63.30
46926;DHT22;32667;48.248;-1.700;2022-09-21T07:11:22;13.70;63.30
46926;DHT22;32667;48.248;-1.700;2022-09-21T07:13:49;13.70;63.20
46926;DHT22;32667;48.248;-1.700;2022-09-21T07:16:15;13.70;63.20
46926;DHT22;32667;48.248;-1.700;2022-09-21T07:18:41;13.80;63.20
46926;DHT22;32667;48.248;-1.700;2022-09-21T07:21:09;13.80;63.10
46926;DHT22;32667;48.248;-1.700;2022-09-21T07:23:36;13.90;63.10
46926;DHT22;32667;48.248;-1.700;2022-09-21T07:26:09;13.90;63.00
46926;DHT22;32667;48.248;-1.700;2022-09-21T07:28:35;14.00;62.90
46926;DHT22;32667;48.248;-1.700;2022-09-21T07:31:13;14.10;62.80
46926;DHT22;32667;48.248;-1.700;2022-09-21T07:33:39;14.20;62.80
46926;DHT22;32667;48.248;-1.700;2022-09-21T07:36:06;14.20;62.60
46926;DHT22;32667;48.248;-1.700;2022-09-21T07:38:42;14.30;62.50
46926;DHT22;32667;48.248;-1.700;2022-09-21T07:41:10;14.40;62.40
46926;DHT22;32667;48.248;-1.700;2022-09-21T07:43:36;14.50;62.40
46926;DHT22;32667;48.248;-1.700;2022-09-21T07:46:07;14.60;62.30
46926;DHT22;32667;48.248;-1.700;2022-09-21T07:48:33;14.70;62.10
46926;DHT22;32667;48.248;-1.700;2022-09-21T07:51:03;14.80;62.00
46926;DHT22;32667;48.248;-1.700;2022-09-21T07:53:34;14.90;61.90
46926;DHT22;32667;48.248;-1.700;2022-09-21T07:56:05;15.00;61.90
46926;DHT22;32667;48.248;-1.700;2022-09-21T07:58:31;15.10;61.80
46926;DHT22;32667;48.248;-1.700;2022-09-21T08:01:16;15.20;61.70
46926;DHT22;32667;48.248;-1.700;2022-09-21T08:03:42;15.30;61.60
46926;DHT22;32667;48.248;-1.700;2022-09-21T08:06:08;15.30;61.50
46926;DHT22;32667;48.248;-1.700;2022-09-21T08:08:34;15.40;61.50
46926;DHT22;32667;48.248;-1.700;2022-09-21T08:11:04;15.50;61.40
46926;DHT22;32667;48.248;-1.700;2022-09-21T08:13:30;15.60;61.30
46926;DHT22;32667;48.248;-1.700;2022-09-21T08:15:58;15.80;61.20
46926;DHT22;32667;48.248;-1.700;2022-09-21T08:18:24;15.90;61.00
46926;DHT22;32667;48.248;-1.700;2022-09-21T08:20:58;16.00;60.90
46926;DHT22;32667;48.248;-1.700;2022-09-21T08:23:25;16.10;60.80
46926;DHT22;32667;48.248;-1.700;2022-09-21T08:26:00;16.20;60.80
46926;DHT22;32667;48.248;-1.700;2022-09-21T08:28:29;16.30;60.90
46926;DHT22;32667;48.248;-1.700;2022-09-21T08:31:03;16.40;60.80
46926;DHT22;32667;48.248;-1.700;2022-09-21T08:33:30;16.50;60.60
46926;DHT22;32667;48.248;-1.700;2022-09-21T08:35:58;16.70;60.50
46926;DHT22;32667;48.248;-1.700;2022-09-21T08:38:25;16.90;60.40
46926;DHT22;32667;48.248;-1.700;2022-09-21T08:40:52;17.00;60.30
46926;DHT22;32667;48.248;-1.700;2022-09-21T08:43:34;17.10;60.20
46926;DHT22;32667;48.248;-1.700;2022-09-21T08:46:05;17.20;60.20
46926;DHT22;32667;48.248;-1.700;2022-09-21T08:48:37;17.30;60.10
46926;DHT22;32667;48.248;-1.700;2022-09-21T08:51:08;17.30;60.00
46926;DHT22;32667;48.248;-1.700;2022-09-21T08:53:37;17.40;60.30
46926;DHT22;32667;48.248;-1.700;2022-09-21T08:56:04;17.50;60.00
46926;DHT22;32667;48.248;-1.700;2022-09-21T08:58:31;17.50;60.00
46926;DHT22;32667;48.248;-1.700;2022-09-21T09:10:16;17.80;59.80
46926;DHT22;32667;48.248;-1.700;2022-09-21T09:13:06;17.90;59.90
46926;DHT22;32667;48.248;-1.700;2022-09-21T09:15:51;18.00;59.90
46926;DHT22;32667;48.248;-1.700;2022-09-21T09:21:18;18.10;60.00
46926;DHT22;32667;48.248;-1.700;2022-09-21T09:23:49;18.10;60.40
46926;DHT22;32667;48.248;-1.700;2022-09-21T09:26:37;18.20;59.80
46926;DHT22;32667;48.248;-1.700;2022-09-21T09:29:32;18.20;59.80
46926;DHT22;32667;48.248;-1.700;2022-09-21T09:32:00;18.30;59.70
46926;DHT22;32667;48.248;-1.700;2022-09-21T09:34:50;18.40;59.70
46926;DHT22;32667;48.248;-1.700;2022-09-21T09:37:19;18.40;59.70
46926;DHT22;32667;48.248;-1.700;2022-09-21T09:39:54;18.50;59.70
46926;DHT22;32667;48.248;-1.700;2022-09-21T09:45:08;18.60;59.70
46926;DHT22;32667;48.248;-1.700;2022-09-21T09:50:26;18.60;59.60
46926;DHT22;32667;48.248;-1.700;2022-09-21T09:52:58;18.70;59.60
46926;DHT22;32667;48.248;-1.700;2022-09-21T09:55:40;18.80;59.60
46926;DHT22;32667;48.248;-1.700;2022-09-21T09:58:41;18.70;59.50
46926;DHT22;32667;48.248;-1.700;2022-09-21T10:01:39;18.80;59.50
46926;DHT22;32667;48.248;-1.700;2022-09-21T10:04:16;18.90;59.50
46926;DHT22;32667;48.248;-1.700;2022-09-21T10:06:42;18.90;59.40
46926;DHT22;32667;48.248;-1.700;2022-09-21T10:09:32;18.90;59.40
46926;DHT22;32667;48.248;-1.700;2022-09-21T10:12:22;19.00;59.40
46926;DHT22;32667;48.248;-1.700;2022-09-21T10:14:55;19.00;59.40
46926;DHT22;32667;48.248;-1.700;2022-09-21T10:17:24;19.10;59.30
46926;DHT22;32667;48.248;-1.700;2022-09-21T10:20:04;19.20;59.30
46926;DHT22;32667;48.248;-1.700;2022-09-21T10:22:31;19.20;59.20
46926;DHT22;32667;48.248;-1.700;2022-09-21T10:24:57;19.30;59.20
46926;DHT22;32667;48.248;-1.700;2022-09-21T10:27:36;19.30;59.10
46926;DHT22;32667;48.248;-1.700;2022-09-21T10:32:56;19.50;59.00
46926;DHT22;32667;48.248;-1.700;2022-09-21T10:35:23;19.50;58.90
46926;DHT22;32667;48.248;-1.700;2022-09-21T10:38:09;19.60;58.90
46926;DHT22;32667;48.248;-1.700;2022-09-21T10:40:36;19.70;58.90
46926;DHT22;32667;48.248;-1.700;2022-09-21T10:43:02;19.70;58.90
46926;DHT22;32667;48.248;-1.700;2022-09-21T10:45:30;19.70;58.80
46926;DHT22;32667;48.248;-1.700;2022-09-21T10:48:09;19.80;58.90
46926;DHT22;32667;48.248;-1.700;2022-09-21T10:50:38;19.80;58.90
46926;DHT22;32667;48.248;-1.700;2022-09-21T10:53:18;19.80;58.90
46926;DHT22;32667;48.248;-1.700;2022-09-21T10:59:53;19.90;58.90
46926;DHT22;32667;48.248;-1.700;2022-09-21T11:01:51;19.80;58.90
46926;DHT22;32667;48.248;-1.700;2022-09-21T11:04:35;19.90;58.90
46926;DHT22;32667;48.248;-1.700;2022-09-21T11:07:26;19.90;58.90
46926;DHT22;32667;48.248;-1.700;2022-09-21T11:18:12;20.10;58.70
46926;DHT22;32667;48.248;-1.700;2022-09-21T11:21:00;20.20;58.60
46926;DHT22;32667;48.248;-1.700;2022-09-21T11:23:43;20.30;58.60
46926;DHT22;32667;48.248;-1.700;2022-09-21T11:26:23;20.30;58.60
46926;DHT22;32667;48.248;-1.700;2022-09-21T11:28:56;20.30;58.60
46926;DHT22;32667;48.248;-1.700;2022-09-21T11:31:38;20.30;58.60
46926;DHT22;32667;48.248;-1.700;2022-09-21T11:39:43;20.50;58.50
46926;DHT22;32667;48.248;-1.700;2022-09-21T11:42:35;20.60;58.50
46926;DHT22;32667;48.248;-1.700;2022-09-21T11:45:17;20.60;58.40
46926;DHT22;32667;48.248;-1.700;2022-09-21T11:48:10;20.70;58.90
46926;DHT22;32667;48.248;-1.700;2022-09-21T11:56:36;20.60;58.50
46926;DHT22;32667;48.248;-1.700;2022-09-21T11:59:42;20.60;58.60
46926;DHT22;32667;48.248;-1.700;2022-09-21T12:03:05;20.60;58.60
46926;DHT22;32667;48.248;-1.700;2022-09-21T12:05:41;20.70;58.60
46926;DHT22;32667;48.248;-1.700;2022-09-21T12:21:59;21.30;57.90
46926;DHT22;32667;48.248;-1.700;2022-09-21T12:24:38;21.40;57.90
46926;DHT22;32667;48.248;-1.700;2022-09-21T12:27:26;21.40;57.80
46926;DHT22;32667;48.248;-1.700;2022-09-21T12:29:57;21.50;57.80
46926;DHT22;32667;48.248;-1.700;2022-09-21T12:35:14;21.70;57.60
46926;DHT22;32667;48.248;-1.700;2022-09-21T12:37:58;21.80;57.50
46926;DHT22;32667;48.248;-1.700;2022-09-21T12:43:41;22.00;57.30
46926;DHT22;32667;48.248;-1.700;2022-09-21T12:46:21;22.00;57.50
46926;DHT22;32667;48.248;-1.700;2022-09-21T12:48:48;22.00;57.40
46926;DHT22;32667;48.248;-1.700;2022-09-21T12:51:33;22.10;57.40
46926;DHT22;32667;48.248;-1.700;2022-09-21T13:00:13;22.80;56.80
46926;DHT22;32667;48.248;-1.700;2022-09-21T13:08:15;23.50;56.00
46926;DHT22;32667;48.248;-1.700;2022-09-21T13:10:54;23.70;56.00
46926;DHT22;32667;48.248;-1.700;2022-09-21T13:15:54;24.00;55.60
46926;DHT22;32667;48.248;-1.700;2022-09-21T13:18:32;24.20;55.90
46926;DHT22;32667;48.248;-1.700;2022-09-21T13:21:17;24.40;55.50
46926;DHT22;32667;48.248;-1.700;2022-09-21T13:24:32;24.60;55.40
46926;DHT22;32667;48.248;-1.700;2022-09-21T13:26:52;24.70;55.40
46926;DHT22;32667;48.248;-1.700;2022-09-21T13:34:26;25.10;55.30
46926;DHT22;32667;48.248;-1.700;2022-09-21T13:47:41;25.20;55.70
46926;DHT22;32667;48.248;-1.700;2022-09-21T13:50:39;25.10;56.00
46926;DHT22;32667;48.248;-1.700;2022-09-21T13:55:48;25.20;56.20
46926;DHT22;32667;48.248;-1.700;2022-09-21T13:58:23;25.30;56.00
46926;DHT22;32667;48.248;-1.700;2022-09-21T14:00:59;25.40;56.00
46926;DHT22;32667;48.248;-1.700;2022-09-21T14:06:12;25.70;55.80
46926;DHT22;32667;48.248;-1.700;2022-09-21T14:11:20;25.90;55.50
46926;DHT22;32667;48.248;-1.700;2022-09-21T14:16:53;26.10;55.40
46926;DHT22;32667;48.248;-1.700;2022-09-21T14:24:33;26.20;55.60
46926;DHT22;32667;48.248;-1.700;2022-09-21T14:27:27;26.00;55.70
46926;DHT22;32667;48.248;-1.700;2022-09-21T14:35:19;25.80;56.30
46926;DHT22;32667;48.248;-1.700;2022-09-21T14:37:57;25.90;56.20
46926;DHT22;32667;48.248;-1.700;2022-09-21T14:40:35;26.00;56.10
46926;DHT22;32667;48.248;-1.700;2022-09-21T14:46:07;26.30;55.80
46926;DHT22;32667;48.248;-1.700;2022-09-21T14:49:14;26.40;55.70
46926;DHT22;32667;48.248;-1.700;2022-09-21T15:00:21;26.30;55.90
46926;DHT22;32667;48.248;-1.700;2022-09-21T15:12:16;26.40;55.90
46926;DHT22;32667;48.248;-1.700;2022-09-21T15:14:57;26.40;55.90
46926;DHT22;32667;48.248;-1.700;2022-09-21T15:17:27;26.40;55.90
46926;DHT22;32667;48.248;-1.700;2022-09-21T15:20:15;26.40;56.00
46926;DHT22;32667;48.248;-1.700;2022-09-21T15:22:42;26.30;56.10
46926;DHT22;32667;48.248;-1.700;2022-09-21T15:25:12;26.10;56.30
46926;DHT22;32667;48.248;-1.700;2022-09-21T15:27:41;26.10;56.40
46926;DHT22;32667;48.248;-1.700;2022-09-21T15:30:21;26.10;56.30
46926;DHT22;32667;48.248;-1.700;2022-09-21T15:32:51;26.10;56.30
46926;DHT22;32667;48.248;-1.700;2022-09-21T15:37:46;26.10;56.40
46926;DHT22;32667;48.248;-1.700;2022-09-21T15:42:58;26.00;56.60
46926;DHT22;32667;48.248;-1.700;2022-09-21T15:48:17;26.00;56.60
46926;DHT22;32667;48.248;-1.700;2022-09-21T15:50:54;26.00;56.60
46926;DHT22;32667;48.248;-1.700;2022-09-21T15:53:27;26.00;56.60
46926;DHT22;32667;48.248;-1.700;2022-09-21T15:55:56;25.90;56.50
46926;DHT22;32667;48.248;-1.700;2022-09-21T16:00:54;25.80;56.70
46926;DHT22;32667;48.248;-1.700;2022-09-21T16:03:22;25.80;56.80
46926;DHT22;32667;48.248;-1.700;2022-09-21T16:05:55;25.80;56.90
46926;DHT22;32667;48.248;-1.700;2022-09-21T16:08:33;25.70;56.90
46926;DHT22;32667;48.248;-1.700;2022-09-21T16:11:38;25.70;56.90
46926;DHT22;32667;48.248;-1.700;2022-09-21T16:14:14;25.70;56.80
46926;DHT22;32667;48.248;-1.700;2022-09-21T16:24:58;25.30;57.10
46926;DHT22;32667;48.248;-1.700;2022-09-21T16:27:28;25.20;57.40
46926;DHT22;32667;48.248;-1.700;2022-09-21T16:29:56;25.20;57.50
46926;DHT22;32667;48.248;-1.700;2022-09-21T16:32:31;25.20;57.40
46926;DHT22;32667;48.248;-1.700;2022-09-21T16:35:21;25.20;57.30
46926;DHT22;32667;48.248;-1.700;2022-09-21T16:37:49;25.20;57.30
46926;DHT22;32667;48.248;-1.700;2022-09-21T16:40:16;25.10;57.30
46926;DHT22;32667;48.248;-1.700;2022-09-21T16:42:43;25.00;57.30
46926;DHT22;32667;48.248;-1.700;2022-09-21T16:45:28;25.00;57.40
46926;DHT22;32667;48.248;-1.700;2022-09-21T16:47:56;24.90;57.60
46926;DHT22;32667;48.248;-1.700;2022-09-21T16:50:23;24.80;57.60
46926;DHT22;32667;48.248;-1.700;2022-09-21T16:52:49;24.70;57.70
46926;DHT22;32667;48.248;-1.700;2022-09-21T17:09:34;24.40;57.90
46926;DHT22;32667;48.248;-1.700;2022-09-21T17:12:01;24.30;58.10
46926;DHT22;32667;48.248;-1.700;2022-09-21T17:14:29;24.10;58.30
46926;DHT22;32667;48.248;-1.700;2022-09-21T17:17:00;24.00;58.40
46926;DHT22;32667;48.248;-1.700;2022-09-21T17:19:29;23.90;58.60
46926;DHT22;32667;48.248;-1.700;2022-09-21T17:21:56;23.80;58.60
46926;DHT22;32667;48.248;-1.700;2022-09-21T17:24:24;23.70;58.80
46926;DHT22;32667;48.248;-1.700;2022-09-21T17:26:51;23.50;58.80
46926;DHT22;32667;48.248;-1.700;2022-09-21T17:29:20;23.50;59.00
46926;DHT22;32667;48.248;-1.700;2022-09-21T17:31:49;23.40;59.00
46926;DHT22;32667;48.248;-1.700;2022-09-21T17:34:16;23.30;59.00
46926;DHT22;32667;48.248;-1.700;2022-09-21T17:36:41;23.30;59.00
46926;DHT22;32667;48.248;-1.700;2022-09-21T17:39:07;23.30;59.00
46926;DHT22;32667;48.248;-1.700;2022-09-21T17:41:49;23.30;58.90
46926;DHT22;32667;48.248;-1.700;2022-09-21T17:47:28;23.10;58.90
46926;DHT22;32667;48.248;-1.700;2022-09-21T17:52:36;23.00;59.00
46926;DHT22;32667;48.248;-1.700;2022-09-21T17:55:21;22.90;59.10
46926;DHT22;32667;48.248;-1.700;2022-09-21T17:58:12;22.80;59.10
46926;DHT22;32667;48.248;-1.700;2022-09-21T18:03:25;22.50;59.20
46926;DHT22;32667;48.248;-1.700;2022-09-21T18:05:54;22.50;59.30
46926;DHT22;32667;48.248;-1.700;2022-09-21T18:08:22;22.40;59.40
46926;DHT22;32667;48.248;-1.700;2022-09-21T18:19:52;22.00;59.60
46926;DHT22;32667;48.248;-1.700;2022-09-21T18:22:38;21.90;59.70
46926;DHT22;32667;48.248;-1.700;2022-09-21T18:25:22;21.80;59.80
46926;DHT22;32667;48.248;-1.700;2022-09-21T18:27:51;21.70;59.90
46926;DHT22;32667;48.248;-1.700;2022-09-21T18:30:17;21.60;59.90
46926;DHT22;32667;48.248;-1.700;2022-09-21T18:38:01;21.40;60.10
46926;DHT22;32667;48.248;-1.700;2022-09-21T18:40:55;21.30;60.10
46926;DHT22;32667;48.248;-1.700;2022-09-21T18:43:44;21.30;60.10
46926;DHT22;32667;48.248;-1.700;2022-09-21T18:51:51;21.10;60.20
46926;DHT22;32667;48.248;-1.700;2022-09-21T18:54:21;21.00;60.20
46926;DHT22;32667;48.248;-1.700;2022-09-21T18:56:51;20.90;60.20
46926;DHT22;32667;48.248;-1.700;2022-09-21T18:59:17;20.80;60.30
46926;DHT22;32667;48.248;-1.700;2022-09-21T19:01:45;20.80;60.40
46926;DHT22;32667;48.248;-1.700;2022-09-21T19:04:12;20.70;60.40
46926;DHT22;32667;48.248;-1.700;2022-09-21T19:07:03;20.70;60.50
46926;DHT22;32667;48.248;-1.700;2022-09-21T19:10:03;20.60;60.50
46926;DHT22;32667;48.248;-1.700;2022-09-21T19:20:40;20.40;60.60
46926;DHT22;32667;48.248;-1.700;2022-09-21T19:26:16;20.30;60.70
46926;DHT22;32667;48.248;-1.700;2022-09-21T19:31:48;20.20;60.70
46926;DHT22;32667;48.248;-1.700;2022-09-21T19:34:16;20.10;60.70
46926;DHT22;32667;48.248;-1.700;2022-09-21T19:36:43;20.10;60.80
46926;DHT22;32667;48.248;-1.700;2022-09-21T19:39:12;20.00;60.70
46926;DHT22;32667;48.248;-1.700;2022-09-21T19:44:32;19.90;60.80
46926;DHT22;32667;48.248;-1.700;2022-09-21T19:47:26;19.90;61.50
46926;DHT22;32667;48.248;-1.700;2022-09-21T19:52:35;19.80;60.90
46926;DHT22;32667;48.248;-1.700;2022-09-21T19:55:01;19.70;60.80
46926;DHT22;32667;48.248;-1.700;2022-09-21T19:57:46;19.70;60.80